Time;durP1;ratioP1;P1;durP2;ratioP2;P2;SDS_P1;SDS_P2;PMS_P1;PMS_P2;Temp;Humidity;BMP_temperature;BMP_pressure;BME280_temperature;BME280_humidity;BME280_pressure;Samples;Min_cycle;Max_cycle;Signal;HPM_P1;HPM_P2
2022/06/16 00:00:51;;;;;;;7.13;3.28;;;;;;;18.90;52.42;101768.19;5025759;28;20063;-44
2022/06/16 00:03:39;;;;;;;5.50;3.10;;;;;;;18.90;52.35;101769.00;5030871;28;20053;-44
2022/06/16 00:06:26;;;;;;;6.82;3.10;;;;;;;18.88;52.11;101770.41;5026915;28;20049;-44
2022/06/16 00:09:14;;;;;;;10.20;3.60;;;;;;;18.89;52.21;101783.94;5028592;28;20046;-45
2022/06/16 00:12:02;;;;;;;10.00;3.38;;;;;;;18.88;52.20;101781.47;5016260;28;20058;-44
2022/06/16 00:14:49;;;;;;;7.72;3.67;;;;;;;18.90;52.04;101773.69;5032119;28;20041;-44
2022/06/16 00:17:37;;;;;;;9.52;3.45;;;;;;;18.89;51.84;101781.16;5033108;28;20451;-44
2022/06/16 00:20:25;;;;;;;9.20;3.25;;;;;;;18.82;52.08;101772.44;5026886;28;20065;-44
2022/06/16 00:23:12;;;;;;;9.82;3.28;;;;;;;18.80;51.98;101776.63;5018831;28;20050;-44
2022/06/16 00:26:00;;;;;;;8.68;3.28;;;;;;;18.78;52.33;101774.16;5029998;28;20049;-45
2022/06/16 00:28:49;;;;;;;9.23;3.42;;;;;;;18.76;52.08;101778.31;5033385;28;20663;-45
2022/06/16 00:31:36;;;;;;;7.78;3.20;;;;;;;18.70;52.19;101774.81;5018845;28;20033;-43
2022/06/16 00:34:24;;;;;;;6.75;3.38;;;;;;;18.62;52.29;101775.50;5022822;28;20050;-44
2022/06/16 00:37:13;;;;;;;7.03;3.38;;;;;;;18.57;52.39;101787.44;5025943;28;20065;-43
2022/06/16 00:40:00;;;;;;;8.13;3.55;;;;;;;18.56;52.29;101783.03;5033476;28;20045;-45
2022/06/16 00:42:48;;;;;;;10.65;3.53;;;;;;;18.60;52.53;101792.38;5028969;28;20049;-44
2022/06/16 00:45:43;;;;;;;9.50;3.65;;;;;;;18.53;52.65;101794.66;5002578;28;20050;-49
2022/06/16 00:48:41;;;;;;;5.05;3.05;;;;;;;18.51;52.63;101792.19;5031330;28;20395;-48
2022/06/16 00:51:40;;;;;;;12.20;3.40;;;;;;;18.59;52.38;101796.25;5028379;28;20042;-49
2022/06/16 00:54:33;;;;;;;7.32;3.30;;;;;;;18.45;52.49;101792.59;5032198;28;20052;-49
2022/06/16 00:57:26;;;;;;;8.60;3.88;;;;;;;18.22;53.09;101791.50;5002117;28;20042;-47
2022/06/16 01:04:51;;;;;;;5.82;3.30;;;;;;;18.29;53.27;101795.53;5027956;28;20499;-47
2022/06/16 01:06:30;;;;;;;8.43;3.25;;;;;;;18.29;53.21;101790.03;5014593;28;20057;-49
2022/06/16 01:09:24;;;;;;;6.00;3.05;;;;;;;18.22;53.43;101792.34;5021693;28;20034;-51
2022/06/16 01:15:53;;;;;;;8.45;3.22;;;;;;;18.37;53.28;101798.75;5030952;28;20072;-48
2022/06/16 01:19:01;;;;;;;8.90;3.63;;;;;;;18.41;53.02;101794.28;5030821;28;20512;-48
2022/06/16 01:21:55;;;;;;;8.77;3.45;;;;;;;18.40;52.93;101800.91;5012957;28;20056;-47
2022/06/16 01:25:11;;;;;;;6.47;3.28;;;;;;;18.24;53.40;101806.66;5030058;28;20041;-50
2022/06/16 01:28:20;;;;;;;8.57;3.65;;;;;;;18.16;53.51;101815.59;5019463;28;20518;-48
2022/06/16 01:31:33;;;;;;;9.35;3.85;;;;;;;18.12;53.57;101820.06;5018153;28;20046;-49
2022/06/16 01:34:30;;;;;;;7.20;3.22;;;;;;;18.04;54.00;101827.03;5027465;28;20084;-47
2022/06/16 01:37:45;;;;;;;6.90;3.47;;;;;;;18.04;53.93;101829.00;5021806;28;20071;-48
2022/06/16 01:40:32;;;;;;;7.63;3.33;;;;;;;18.00;53.97;101831.50;5024501;28;20128;-46
2022/06/16 01:43:23;;;;;;;7.10;3.50;;;;;;;18.00;54.18;101828.75;5019664;28;20037;-49
2022/06/16 01:46:30;;;;;;;8.68;3.65;;;;;;;17.87;54.38;101824.75;5030597;28;20050;-48
2022/06/16 01:49:36;;;;;;;9.10;3.53;;;;;;;17.80;54.53;101829.78;5012944;28;20050;-49
2022/06/16 01:52:32;;;;;;;8.10;3.50;;;;;;;17.74;55.08;101841.94;5010219;28;20052;-49
2022/06/16 01:55:33;;;;;;;11.35;3.92;;;;;;;17.71;54.93;101831.50;5009213;28;20144;-46
2022/06/16 01:58:28;;;;;;;9.88;3.38;;;;;;;17.66;55.16;101831.56;4999434;28;20053;-48
2022/06/16 02:01:18;;;;;;;11.27;3.97;;;;;;;17.63;55.05;101834.88;5006311;28;20452;-47
2022/06/16 02:04:20;;;;;;;8.68;3.13;;;;;;;17.63;55.38;101837.63;5028360;28;20283;-47
2022/06/16 02:07:13;;;;;;;8.95;3.50;;;;;;;17.59;55.13;101828.34;5012203;28;20406;-48
2022/06/16 02:10:07;;;;;;;6.65;3.40;;;;;;;17.48;55.61;101824.03;5030245;28;20073;-47
2022/06/16 02:12:57;;;;;;;8.38;3.90;;;;;;;17.42;55.71;101818.56;5031709;28;20045;-48
2022/06/16 02:16:05;;;;;;;7.07;3.80;;;;;;;17.50;55.44;101821.81;5006310;28;20050;-47
2022/06/16 02:18:57;;;;;;;6.68;3.15;;;;;;;17.52;55.50;101822.34;5010809;28;20053;-48
2022/06/16 02:21:46;;;;;;;6.47;3.25;;;;;;;17.55;55.33;101819.00;5025280;28;20052;-47
2022/06/16 02:24:35;;;;;;;6.03;2.90;;;;;;;17.57;55.21;101825.03;5010392;28;20077;-48
2022/06/16 02:27:23;;;;;;;8.98;3.85;;;;;;;17.45;55.37;101834.50;5020190;28;20496;-49
2022/06/16 02:30:11;;;;;;;8.70;3.55;;;;;;;17.44;55.71;101849.41;5011698;28;20046;-49
2022/06/16 02:33:22;;;;;;;7.63;3.42;;;;;;;17.49;55.65;101845.78;5010040;28;20050;-48
2022/06/16 02:36:12;;;;;;;6.15;3.60;;;;;;;17.35;56.09;101844.81;5020836;28;20411;-47
2022/06/16 02:39:29;;;;;;;9.07;3.50;;;;;;;17.21;56.59;101847.41;5022183;28;20042;-48
2022/06/16 02:42:22;;;;;;;8.15;3.90;;;;;;;17.28;56.35;101850.66;5027637;28;20056;-49
2022/06/16 02:45:13;;;;;;;8.95;3.88;;;;;;;17.28;56.39;101864.41;5025626;28;20046;-48
2022/06/16 02:48:21;;;;;;;10.23;3.90;;;;;;;17.37;55.90;101875.66;5000552;28;20408;-49
2022/06/16 02:51:18;;;;;;;11.00;4.35;;;;;;;17.42;56.23;101870.91;5006074;28;20045;-47
2022/06/16 02:54:32;;;;;;;9.32;3.70;;;;;;;17.37;55.90;101873.72;5026635;28;20052;-47
2022/06/16 02:57:42;;;;;;;9.65;4.10;;;;;;;17.25;55.96;101868.56;4992112;28;20042;-50
2022/06/16 03:00:39;;;;;;;10.60;4.25;;;;;;;17.09;56.55;101885.50;5018401;28;20440;-48
2022/06/16 03:03:33;;;;;;;9.93;3.75;;;;;;;16.95;57.53;101879.78;4998529;28;20049;-47
2022/06/16 03:06:25;;;;;;;9.38;3.92;;;;;;;16.93;57.31;101887.50;5017756;28;20107;-47
2022/06/16 03:09:14;;;;;;;7.07;3.60;;;;;;;16.99;57.23;101903.72;5026430;28;20073;-48
2022/06/16 03:12:03;;;;;;;10.93;3.97;;;;;;;17.12;57.01;101893.19;5023989;28;20042;-49
2022/06/16 03:14:51;;;;;;;9.68;3.88;;;;;;;16.99;57.32;101891.91;5029313;28;20045;-46
2022/06/16 03:17:44;;;;;;;8.75;3.88;;;;;;;17.00;57.16;101888.88;5027621;28;20092;-46
2022/06/16 03:20:31;;;;;;;9.18;4.13;;;;;;;16.94;57.37;101884.50;5026609;28;20049;-46
2022/06/16 03:23:01;;;;;;;8.75;3.67;;;;;;;16.81;57.87;101885.09;5011483;28;20488;-47
2022/06/16 03:25:49;;;;;;;8.23;4.03;;;;;;;16.79;57.89;101882.66;5031282;28;20396;-47
2022/06/16 03:28:37;;;;;;;11.70;4.20;;;;;;;16.82;57.31;101889.53;5016836;28;20132;-45
2022/06/16 03:31:30;;;;;;;10.15;4.47;;;;;;;16.75;58.03;101887.03;5032617;28;20034;-47
2022/06/16 03:34:14;;;;;;;8.80;4.40;;;;;;;16.72;58.02;101886.81;5015423;28;20444;-48
2022/06/16 03:37:01;;;;;;;10.27;4.28;;;;;;;16.64;58.10;101882.69;5023534;28;20092;-47
2022/06/16 03:40:07;;;;;;;8.23;4.38;;;;;;;16.67;58.01;101886.81;5020550;28;20040;-45
2022/06/16 03:42:56;;;;;;;8.88;4.38;;;;;;;16.64;58.12;101906.63;5035291;28;20053;-51
2022/06/16 03:45:47;;;;;;;9.65;4.40;;;;;;;16.55;58.48;101904.47;5035229;28;20041;-47
2022/06/16 03:48:36;;;;;;;11.25;4.95;;;;;;;16.38;58.80;101915.84;5022630;28;20073;-48
2022/06/16 03:51:24;;;;;;;8.45;4.10;;;;;;;16.19;59.56;101929.34;5023112;28;20058;-49
2022/06/16 03:54:11;;;;;;;7.95;4.00;;;;;;;16.28;59.41;101934.28;5019481;28;20051;-46
2022/06/16 03:56:59;;;;;;;10.20;4.40;;;;;;;16.40;59.11;101927.38;5030650;28;20455;-50
2022/06/16 03:59:46;;;;;;;9.70;4.93;;;;;;;16.35;59.44;101932.88;5028653;28;20055;-46
2022/06/16 04:02:38;;;;;;;13.77;4.38;;;;;;;16.30;59.60;101923.81;5026197;28;20050;-48
2022/06/16 04:05:26;;;;;;;10.23;4.30;;;;;;;16.38;59.24;101931.53;5015870;28;20061;-45
2022/06/16 04:08:24;;;;;;;12.68;4.75;;;;;;;16.28;59.10;101926.84;5017742;28;20127;-48
2022/06/16 04:11:30;;;;;;;9.35;3.95;;;;;;;16.24;59.69;101933.22;5029944;28;20041;-48
2022/06/16 04:14:21;;;;;;;9.68;4.15;;;;;;;16.23;59.81;101934.28;5031574;28;20527;-47
2022/06/16 04:17:16;;;;;;;8.05;4.40;;;;;;;16.38;59.59;101937.84;5033864;28;20056;-44
2022/06/16 04:20:13;;;;;;;10.57;4.93;;;;;;;16.53;58.86;101936.94;5016666;28;20062;-45
2022/06/16 04:23:18;;;;;;;7.88;4.30;;;;;;;16.58;58.92;101936.94;5015211;28;21619;-46
2022/06/16 04:26:07;;;;;;;10.57;4.40;;;;;;;16.60;59.02;101940.22;5025690;28;20040;-47
2022/06/16 04:29:00;;;;;;;8.05;4.15;;;;;;;16.52;58.26;101935.28;5025068;28;20180;-47
2022/06/16 04:31:47;;;;;;;10.43;4.20;;;;;;;16.23;59.43;101945.28;5021653;28;20049;-49
2022/06/16 04:34:37;;;;;;;11.65;4.40;;;;;;;15.82;61.35;101951.66;5032196;28;20045;-48
2022/06/16 04:37:26;;;;;;;8.93;4.32;;;;;;;15.79;61.64;101948.66;5033907;28;20443;-48
2022/06/16 04:40:17;;;;;;;9.75;4.68;;;;;;;15.85;61.63;101947.53;5029734;28;20547;-47
2022/06/16 04:43:04;;;;;;;9.77;4.82;;;;;;;15.83;61.83;101952.50;5028139;28;20057;-49
2022/06/16 04:45:52;;;;;;;10.13;4.45;;;;;;;15.93;61.49;101958.00;5016399;28;20100;-48
2022/06/16 04:48:44;;;;;;;10.77;4.70;;;;;;;15.92;62.03;101962.69;5022512;28;20121;-44
2022/06/16 04:51:35;;;;;;;8.90;4.22;;;;;;;16.03;61.41;101965.41;5033391;28;20037;-48
2022/06/16 04:54:22;;;;;;;8.48;4.60;;;;;;;16.21;60.99;101975.00;5012033;28;20050;-49
2022/06/16 04:57:28;;;;;;;11.18;4.50;;;;;;;16.13;60.74;101971.69;5022522;28;20097;-48
2022/06/16 05:00:47;;;;;;;9.98;4.60;;;;;;;16.12;61.13;101978.31;5020888;28;20121;-48
2022/06/16 05:04:24;;;;;;;16.17;5.05;;;;;;;16.13;61.31;101979.13;5006317;28;20529;-49
2022/06/16 05:07:24;;;;;;;9.40;4.28;;;;;;;16.00;61.51;101979.72;4323202;28;10000626;-50
2022/06/16 05:10:35;;;;;;;11.68;4.72;;;;;;;15.96;62.08;101980.25;5021247;28;20100;-47
2022/06/16 05:13:28;;;;;;;13.90;4.70;;;;;;;16.10;61.88;101986.00;5010077;28;20137;-54
2022/06/16 05:16:37;;;;;;;11.20;4.78;;;;;;;16.26;60.97;101986.81;5029656;28;20056;-48
2022/06/16 05:19:31;;;;;;;8.68;4.45;;;;;;;16.27;61.16;101993.97;5029759;28;20045;-49
2022/06/16 05:22:39;;;;;;;12.02;5.15;;;;;;;16.14;60.88;102005.53;5023541;28;20144;-52
2022/06/16 05:25:46;;;;;;;9.85;4.70;;;;;;;16.17;60.83;102013.22;5007556;28;20128;-49
2022/06/16 05:28:31;;;;;;;8.30;4.18;;;;;;;16.27;60.96;102013.22;5008243;28;20037;-48
2022/06/16 05:31:27;;;;;;;10.20;4.57;;;;;;;16.23;60.13;102019.53;5015692;28;20112;-50
2022/06/16 05:34:26;;;;;;;8.27;3.88;;;;;;;16.38;59.83;102019.53;5025380;28;20057;-49
2022/06/16 05:37:33;;;;;;;11.13;5.28;;;;;;;16.41;59.70;102024.47;5028246;28;20057;-47
2022/06/16 05:40:39;;;;;;;10.18;4.43;;;;;;;16.35;59.82;102020.88;5020276;28;20053;-52
2022/06/16 05:43:48;;;;;;;8.35;4.20;;;;;;;16.29;60.09;102029.44;5023605;28;20049;-51
2022/06/16 05:46:43;;;;;;;11.68;4.93;;;;;;;16.22;60.10;102026.16;5002391;28;20128;-48
2022/06/16 05:49:33;;;;;;;9.38;4.15;;;;;;;16.34;57.88;102024.75;5031805;28;20424;-49
2022/06/16 05:52:24;;;;;;;12.80;3.63;;;;;;;16.40;58.43;102023.66;5024913;28;20124;-47
2022/06/16 05:55:24;;;;;;;8.73;3.60;;;;;;;16.50;56.00;102039.31;5015300;28;20050;-47
2022/06/16 05:58:13;;;;;;;8.43;3.35;;;;;;;16.58;56.55;102035.16;5016405;28;20050;-47
2022/06/16 06:01:11;;;;;;;12.05;4.00;;;;;;;16.66;55.55;102042.03;5032202;28;20096;-48
2022/06/16 06:03:59;;;;;;;5.57;3.20;;;;;;;16.74;55.60;102045.03;5005178;28;20390;-50
2022/06/16 06:06:47;;;;;;;8.05;3.40;;;;;;;16.84;55.45;102035.97;5010189;28;20056;-49
2022/06/16 06:22:13;;;;;;;8.43;2.50;;;;;;;17.12;50.99;102041.88;5011559;28;20058;-51
2022/06/16 06:25:03;;;;;;;5.68;2.40;;;;;;;17.16;51.39;102038.28;5037495;28;20056;-51
2022/06/16 06:27:52;;;;;;;7.03;2.40;;;;;;;17.22;51.30;102039.06;5000100;28;20045;-51
2022/06/16 06:30:40;;;;;;;6.22;2.60;;;;;;;17.29;50.59;102036.84;5020719;28;20034;-54
2022/06/16 06:33:28;;;;;;;4.15;2.30;;;;;;;17.34;50.87;102036.84;5030230;28;20188;-47
2022/06/16 06:36:16;;;;;;;6.10;2.33;;;;;;;17.38;51.03;102040.66;5025193;28;20049;-45
2022/06/16 06:39:04;;;;;;;8.02;2.70;;;;;;;17.37;50.97;102041.78;5032038;28;20495;-49
2022/06/16 06:41:51;;;;;;;7.78;2.50;;;;;;;17.41;50.19;102042.84;5029607;28;20072;-50
2022/06/16 06:44:39;;;;;;;7.50;2.45;;;;;;;17.44;51.86;102050.53;5032551;28;20041;-53
2022/06/16 06:47:31;;;;;;;9.85;2.75;;;;;;;17.45;51.05;102043.91;5025358;28;20445;-53
2022/06/16 06:50:30;;;;;;;8.43;3.40;;;;;;;17.42;51.25;102052.75;5026822;28;20049;-50
2022/06/16 06:53:18;;;;;;;9.60;2.55;;;;;;;17.43;50.15;102048.88;5019227;28;20046;-50
2022/06/16 06:56:06;;;;;;;6.35;2.70;;;;;;;17.44;49.69;102058.81;5020188;28;20488;-51
2022/06/16 06:58:55;;;;;;;5.22;2.30;;;;;;;17.43;48.63;102062.66;5032542;28;20064;-50
2022/06/16 07:01:43;;;;;;;6.07;2.30;;;;;;;17.42;49.20;102076.75;5018360;28;20064;-53
2022/06/16 07:04:30;;;;;;;5.03;2.20;;;;;;;17.48;48.96;102085.78;5020551;28;20049;-49
2022/06/16 07:07:20;;;;;;;6.75;2.33;;;;;;;17.52;48.51;102089.63;5024235;28;20456;-54
2022/06/16 07:10:09;;;;;;;10.30;2.30;;;;;;;17.51;49.15;102086.06;5016666;28;20053;-52
2022/06/16 07:12:57;;;;;;;5.50;2.30;;;;;;;17.51;48.94;102079.69;5027042;28;20408;-54
2022/06/16 07:15:45;;;;;;;7.32;2.13;;;;;;;17.53;48.14;102094.84;5030048;28;20037;-53
2022/06/16 07:18:22;;;;;;;4.05;2.03;;;;;;;17.50;48.14;102095.41;5034778;28;20115;-55
2022/06/16 07:21:11;;;;;;;5.40;2.40;;;;;;;17.54;47.32;102092.94;5029520;28;20053;-56
2022/06/16 07:23:59;;;;;;;5.40;2.40;;;;;;;17.60;47.59;102089.84;5018397;28;20454;-49
2022/06/16 07:26:46;;;;;;;4.70;2.25;;;;;;;17.65;47.32;102095.34;5033427;28;20053;-51
2022/06/16 07:29:34;;;;;;;8.57;2.65;;;;;;;17.73;48.48;102104.13;5034442;28;20056;-51
2022/06/16 07:32:31;;;;;;;7.35;2.70;;;;;;;17.81;47.70;102100.78;5021092;28;20048;-55
2022/06/16 07:35:20;;;;;;;7.88;2.20;;;;;;;17.87;47.76;102107.91;5033719;28;20480;-50
2022/06/16 07:38:09;;;;;;;6.25;2.80;;;;;;;17.90;47.54;102109.28;5036577;28;20522;-49
2022/06/16 07:44:09;;;;;;;5.75;2.35;;;;;;;17.96;47.70;102124.69;5036073;28;20408;-54
2022/06/16 07:46:57;;;;;;;5.25;2.30;;;;;;;18.00;47.92;102125.75;5033880;28;20053;-55
2022/06/16 07:49:43;;;;;;;8.10;2.53;;;;;;;18.04;47.73;102141.44;5029638;28;20845;-55
2022/06/16 07:52:30;;;;;;;7.10;2.67;;;;;;;18.02;48.23;102140.09;5025734;28;20488;-50
2022/06/16 07:55:18;;;;;;;6.00;2.40;;;;;;;18.01;47.05;102144.75;5034418;28;20618;-56
2022/06/16 07:58:06;;;;;;;6.85;2.20;;;;;;;18.04;47.16;102133.19;5033049;28;20073;-55
2022/06/16 08:00:53;;;;;;;4.38;2.13;;;;;;;18.09;47.05;102129.56;5035471;28;20404;-50
2022/06/16 08:03:41;;;;;;;6.60;2.25;;;;;;;18.15;46.23;102141.38;5033703;28;20076;-48
2022/06/16 08:06:29;;;;;;;7.95;2.45;;;;;;;18.15;46.16;102139.44;5018697;28;20104;-47
2022/06/16 08:09:16;;;;;;;5.93;2.17;;;;;;;18.21;47.09;102131.97;5029265;28;20500;-51
2022/06/16 08:12:07;;;;;;;5.30;2.20;;;;;;;18.37;48.38;102143.69;5034908;28;20072;-47
2022/06/16 08:14:56;;;;;;;4.22;2.10;;;;;;;18.45;47.37;102137.56;5030380;28;20481;-50
2022/06/16 08:17:47;;;;;;;9.88;2.40;;;;;;;18.45;45.28;102141.13;5025778;28;20058;-51
2022/06/16 08:20:34;;;;;;;4.95;2.55;;;;;;;18.45;46.14;102148.59;5029979;28;20132;-46
2022/06/16 08:23:22;;;;;;;7.43;2.42;;;;;;;18.43;44.95;102145.31;5019820;28;20115;-46
2022/06/16 08:26:10;;;;;;;6.75;2.53;;;;;;;18.38;44.74;102148.94;5022860;28;20073;-46
2022/06/16 08:28:58;;;;;;;6.00;2.50;;;;;;;18.46;45.38;102153.00;5023187;28;20050;-49
2022/06/16 08:31:46;;;;;;;6.93;2.60;;;;;;;18.52;44.93;102154.63;5029827;28;20049;-47
2022/06/16 08:34:34;;;;;;;7.25;2.47;;;;;;;18.52;44.39;102160.13;5023374;28;20056;-47
2022/06/16 08:37:22;;;;;;;8.48;2.80;;;;;;;18.53;44.79;102159.81;5022131;28;20050;-47
2022/06/16 08:40:10;;;;;;;4.53;1.98;;;;;;;18.62;45.47;102164.75;5014994;28;20147;-47
2022/06/16 08:43:04;;;;;;;5.88;2.50;;;;;;;18.69;44.34;102165.22;5015433;28;20053;-46
2022/06/16 08:46:00;;;;;;;5.78;2.05;;;;;;;18.71;44.62;102160.22;5016596;28;20381;-51
2022/06/16 08:48:59;;;;;;;5.32;2.38;;;;;;;18.74;45.04;102157.72;5024953;28;20129;-48
2022/06/16 08:52:07;;;;;;;7.13;1.92;;;;;;;18.79;45.72;102147.78;5013246;28;20455;-51
2022/06/16 08:55:15;;;;;;;5.57;1.97;;;;;;;18.87;45.60;102145.19;5016394;28;20065;-46
2022/06/16 08:58:34;;;;;;;7.63;2.58;;;;;;;18.98;44.99;102143.16;5023869;28;20293;-51
2022/06/16 09:01:26;;;;;;;6.20;2.33;;;;;;;18.88;44.49;102140.47;5014323;28;20045;-50
2022/06/16 09:04:41;;;;;;;7.63;2.60;;;;;;;18.88;45.21;102144.09;5015079;28;20059;-52
2022/06/16 09:07:47;;;;;;;4.90;2.22;;;;;;;19.02;45.15;102159.94;5013507;28;20045;-52
2022/06/16 09:10:55;;;;;;;7.68;2.35;;;;;;;19.12;44.97;102166.19;5029073;28;20485;-51
2022/06/16 09:14:04;;;;;;;6.32;2.42;;;;;;;19.16;44.20;102170.00;5032362;28;20053;-50
2022/06/16 09:17:07;;;;;;;6.53;2.50;;;;;;;19.17;43.56;102170.84;5032366;28;20041;-52
2022/06/16 09:20:20;;;;;;;7.00;2.90;;;;;;;19.12;44.60;102180.03;5031109;28;20037;-50
2022/06/16 09:23:48;;;;;;;6.57;2.47;;;;;;;19.18;44.85;102185.47;5023176;28;20061;-54
2022/06/16 09:26:46;;;;;;;6.55;2.80;;;;;;;19.26;44.73;102187.59;5029412;28;20555;-52
2022/06/16 09:29:42;;;;;;;4.88;2.42;;;;;;;19.26;44.87;102180.13;5023510;28;20050;-51
2022/06/16 09:32:40;;;;;;;10.02;3.50;;;;;;;19.22;45.12;102194.81;5021022;28;20053;-51
2022/06/16 09:35:43;;;;;;;5.30;2.60;;;;;;;19.29;45.33;102192.53;5021072;28;20049;-53
2022/06/16 09:38:36;;;;;;;6.68;2.65;;;;;;;19.33;44.73;102188.06;5013292;28;20046;-53
2022/06/16 09:44:53;;;;;;;6.97;2.75;;;;;;;19.44;45.15;102189.59;5032448;28;20053;-48
2022/06/16 09:47:53;;;;;;;7.93;2.80;;;;;;;19.50;45.83;102196.69;5021509;28;20073;-54
2022/06/16 09:50:50;;;;;;;7.68;2.80;;;;;;;19.56;45.68;102190.00;5033910;28;20037;-49
2022/06/16 09:53:53;;;;;;;7.30;2.80;;;;;;;19.68;44.78;102186.03;5021579;28;20070;-47
2022/06/16 09:56:47;;;;;;;8.55;2.30;;;;;;;19.68;45.05;102181.31;5025364;28;20124;-52
2022/06/16 09:59:55;;;;;;;6.43;2.63;;;;;;;19.70;45.61;102186.53;5027713;28;20045;-49
2022/06/16 10:02:52;;;;;;;5.45;2.60;;;;;;;19.75;46.15;102183.72;5024055;28;20041;-49
2022/06/16 10:06:11;;;;;;;6.75;2.72;;;;;;;19.79;45.03;102187.53;5027629;28;20054;-50
2022/06/16 10:09:23;;;;;;;8.82;3.38;;;;;;;19.81;44.64;102185.28;5031392;28;20050;-50
2022/06/16 10:12:13;;;;;;;7.28;2.92;;;;;;;19.84;45.71;102184.69;5023432;28;20104;-48
2022/06/16 10:15:20;;;;;;;7.80;2.97;;;;;;;19.92;44.73;102195.09;5012041;28;20128;-49
2022/06/16 10:18:08;;;;;;;10.10;2.97;;;;;;;19.90;44.29;102194.56;5029681;28;20053;-49
2022/06/16 10:20:56;;;;;;;8.30;3.00;;;;;;;19.85;44.84;102189.09;5021122;28;20049;-50
2022/06/16 10:23:48;;;;;;;7.35;3.00;;;;;;;19.83;45.39;102188.59;5022816;28;20056;-50
2022/06/16 10:26:36;;;;;;;5.18;2.60;;;;;;;19.86;44.94;102190.75;5032635;28;20064;-51
2022/06/16 10:29:11;;;;;;;6.38;3.00;;;;;;;19.93;45.78;102188.44;5027463;28;20515;-51
2022/06/16 10:32:00;;;;;;;7.00;2.70;;;;;;;20.02;45.49;102185.81;5028422;28;20046;-54
2022/06/16 10:34:52;;;;;;;11.25;2.80;;;;;;;20.11;46.41;102172.97;5032420;28;20053;-49
2022/06/16 10:37:41;;;;;;;7.85;3.13;;;;;;;20.23;45.24;102180.81;5026032;28;20519;-50
2022/06/16 10:40:32;;;;;;;7.90;2.75;;;;;;;20.26;44.99;102176.63;5020514;28;20518;-48
2022/06/16 10:43:42;;;;;;;8.68;3.00;;;;;;;20.36;45.29;102182.00;5018497;28;20041;-47
2022/06/16 10:46:35;;;;;;;10.98;3.08;;;;;;;20.37;44.76;102181.69;5025726;28;20050;-52
2022/06/16 10:49:27;;;;;;;7.90;3.00;;;;;;;20.35;44.34;102174.81;5011340;28;20068;-50
2022/06/16 10:52:30;;;;;;;7.60;2.92;;;;;;;20.40;44.59;102183.03;5019578;28;20095;-47
2022/06/16 10:55:22;;;;;;;9.77;3.20;;;;;;;20.42;45.13;102184.38;5023955;28;20054;-51
2022/06/16 10:58:26;;;;;;;8.43;2.97;;;;;;;20.48;45.20;102181.53;5031820;28;20054;-47
2022/06/16 11:01:20;;;;;;;9.38;3.17;;;;;;;20.50;44.42;102190.38;5020827;28;20048;-52
2022/06/16 11:04:12;;;;;;;11.30;3.78;;;;;;;20.47;44.36;102191.78;5030152;28;20048;-50
2022/06/16 11:07:00;;;;;;;6.55;2.60;;;;;;;20.50;44.99;102190.38;5023000;28;20416;-50
2022/06/16 11:09:48;;;;;;;6.55;2.70;;;;;;;20.57;43.78;102202.72;5016911;28;20397;-51
2022/06/16 11:12:39;;;;;;;7.10;2.88;;;;;;;20.69;43.32;102191.19;5032293;28;20072;-48
2022/06/16 11:15:29;;;;;;;8.02;2.90;;;;;;;20.77;43.96;102192.41;5027626;28;20045;-50
2022/06/16 11:18:20;;;;;;;7.53;3.33;;;;;;;20.77;43.78;102193.22;5026757;28;20046;-49
2022/06/16 11:21:23;;;;;;;7.60;2.97;;;;;;;20.78;43.57;102203.22;5017296;28;20046;-49
2022/06/16 11:24:12;;;;;;;8.40;3.08;;;;;;;20.76;43.35;102202.69;4988242;28;20054;-48
2022/06/16 11:27:13;;;;;;;9.07;2.85;;;;;;;20.78;44.28;102194.91;5002470;28;20073;-49
2022/06/16 11:30:02;;;;;;;5.82;2.65;;;;;;;20.85;43.89;102187.00;5020898;28;20053;-52
2022/06/16 11:32:41;;;;;;;6.78;2.70;;;;;;;20.95;43.83;102179.63;5013648;28;20050;-45
2022/06/16 11:35:48;;;;;;;8.20;2.72;;;;;;;21.00;43.84;102176.78;5032235;28;20056;-53
2022/06/16 11:38:44;;;;;;;9.40;3.13;;;;;;;21.01;43.05;102179.22;5026751;28;20054;-53
2022/06/16 11:41:32;;;;;;;8.63;3.20;;;;;;;21.01;43.36;102182.00;5016527;28;20049;-50
2022/06/16 11:45:01;;;;;;;7.60;3.10;;;;;;;21.09;43.08;102180.47;5020008;28;20045;-50
2022/06/16 11:48:07;;;;;;;6.90;3.13;;;;;;;21.23;42.49;102172.97;5027430;28;20042;-49
2022/06/16 11:51:19;;;;;;;9.60;3.15;;;;;;;21.22;43.04;102174.13;5012123;28;20045;-51
2022/06/16 11:54:36;;;;;;;6.90;2.70;;;;;;;21.35;43.41;102182.75;5021569;28;20050;-49
2022/06/16 11:57:41;;;;;;;6.22;2.97;;;;;;;21.37;43.14;102178.53;5034921;28;20041;-49
2022/06/16 12:00:43;;;;;;;9.55;3.20;;;;;;;21.49;43.81;102172.50;5020027;28;20054;-50
2022/06/16 12:04:29;;;;;;;6.78;3.35;;;;;;;21.54;42.85;102169.63;5033091;28;20049;-49
2022/06/16 12:07:22;;;;;;;7.97;3.00;;;;;;;21.48;43.06;102177.22;5030943;28;20073;-52
2022/06/16 12:10:19;;;;;;;8.00;3.00;;;;;;;21.54;43.19;102180.72;5034103;28;20051;-49
2022/06/16 12:13:29;;;;;;;6.80;3.17;;;;;;;21.50;42.68;102179.69;5034219;28;20045;-52
2022/06/16 12:16:20;;;;;;;5.13;2.65;;;;;;;21.45;42.90;102179.78;5015038;28;20104;-51
2022/06/16 12:19:37;;;;;;;9.43;3.00;;;;;;;21.43;42.66;102180.13;5026503;28;20504;-51
2022/06/16 12:22:43;;;;;;;9.82;3.10;;;;;;;21.48;42.84;102168.09;5031937;28;20061;-49
2022/06/16 12:25:45;;;;;;;9.30;3.17;;;;;;;21.56;42.71;102170.13;5012357;28;20054;-51
2022/06/16 12:28:51;;;;;;;7.68;2.83;;;;;;;21.61;42.35;102169.19;5032133;28;20042;-52
2022/06/16 12:32:14;;;;;;;9.20;3.13;;;;;;;21.66;42.92;102178.22;5035297;28;20052;-53
2022/06/16 12:35:36;;;;;;;9.77;2.92;;;;;;;21.72;42.90;102191.97;5029961;28;20041;-51
2022/06/16 12:38:36;;;;;;;8.57;3.10;;;;;;;21.77;42.85;102197.41;5029499;28;20041;-51
2022/06/16 12:41:30;;;;;;;11.20;3.28;;;;;;;21.86;42.50;102204.72;5023558;28;20053;-50
2022/06/16 12:44:35;;;;;;;10.38;3.38;;;;;;;21.88;42.14;102207.97;5023539;28;20496;-53
2022/06/16 12:47:30;;;;;;;7.80;2.80;;;;;;;21.85;41.80;102213.34;5030779;28;20064;-50
2022/06/16 12:50:45;;;;;;;7.35;2.75;;;;;;;21.87;41.60;102211.09;5026987;28;20512;-47
2022/06/16 12:53:50;;;;;;;6.85;2.60;;;;;;;21.91;40.69;102207.38;5032962;28;20076;-51
2022/06/16 12:57:00;;;;;;;6.23;2.40;;;;;;;21.94;40.84;102214.25;5033472;28;20057;-50
2022/06/16 13:00:01;;;;;;;11.13;2.90;;;;;;;21.99;40.65;102211.38;5032564;28;20515;-52
2022/06/16 13:03:24;;;;;;;10.65;3.17;;;;;;;21.98;40.75;102208.91;5020499;28;20045;-50
2022/06/16 13:06:05;;;;;;;9.55;2.95;;;;;;;21.99;40.79;102208.59;5015360;28;20061;-47
2022/06/16 13:08:56;;;;;;;3.92;2.35;;;;;;;22.01;40.60;102195.22;4320655;28;10000053;-49
2022/06/16 13:11:48;;;;;;;6.50;2.70;;;;;;;22.01;40.92;102200.78;5011206;28;20096;-53
2022/06/16 13:14:42;;;;;;;8.82;3.00;;;;;;;22.10;40.75;102210.00;5026169;28;20157;-51
2022/06/16 13:17:33;;;;;;;6.55;2.70;;;;;;;22.12;40.22;102204.94;5029319;28;20056;-52
2022/06/16 13:20:09;;;;;;;7.18;2.90;;;;;;;22.28;40.88;102216.56;5028786;28;20147;-50
2022/06/16 13:23:08;;;;;;;7.47;3.00;;;;;;;22.32;39.78;102217.59;5024160;28;20420;-52
2022/06/16 13:26:18;;;;;;;8.38;2.60;;;;;;;22.21;40.31;102204.25;5029139;28;20053;-47
2022/06/16 13:29:06;;;;;;;5.05;2.47;;;;;;;22.21;40.01;102205.06;5013005;28;20085;-49
2022/06/16 13:32:00;;;;;;;10.25;2.70;;;;;;;22.21;40.54;102199.50;5015873;28;20428;-48
2022/06/16 13:34:55;;;;;;;10.23;3.25;;;;;;;22.22;40.79;102201.13;5030607;28;20057;-52
2022/06/16 13:38:01;;;;;;;8.15;2.97;;;;;;;22.29;40.98;102197.94;5015030;28;20050;-50
2022/06/16 13:41:27;;;;;;;7.13;3.17;;;;;;;22.33;40.46;102201.75;5018467;28;20416;-50
2022/06/16 13:44:26;;;;;;;4.82;2.67;;;;;;;22.32;40.22;102203.69;5020366;28;20567;-53
2022/06/16 13:47:14;;;;;;;6.45;2.45;;;;;;;22.35;40.53;102204.22;5011397;28;20099;-48
2022/06/16 13:50:05;;;;;;;4.72;2.78;;;;;;;22.44;39.70;102202.28;5030387;28;20145;-50
2022/06/16 13:52:43;;;;;;;4.22;2.40;;;;;;;22.45;40.00;102196.44;5009907;28;20054;-50
2022/06/16 13:55:33;;;;;;;6.20;2.95;;;;;;;22.45;40.18;102193.66;5022584;28;20052;-49
2022/06/16 13:58:24;;;;;;;5.97;2.90;;;;;;;22.50;39.88;102196.31;5023603;28;20064;-51
2022/06/16 14:01:18;;;;;;;7.38;2.60;;;;;;;22.47;40.30;102194.16;5016030;28;20053;-50